Boothbay, Maine
Current Conditions -  °F | °C
As of 12:53 PM on Tuesday 21 Oct 2014 (Local Time) from KIWI Reporting Station
Light Rain Light Rain  
Wind Chill: 54°   Ceiling: 2800
Heat Index: 54°   Visibility: 5mi
Dew Point: 52°   Wind: 3mph
Humidity: 93%   Direction: 50°NE
Pressure: 30.04"   Gusts: NA
Location:  43.88°N, 69.63°W
Report Text: KIWI 211653Z AUTO 05003KT 5SM -RA BR FEW015 BKN028 OVC035 12/11 A3004 RMK AO2 RAE04B41 SLP171 P0001 T01220111
Loading
Personal Weather Stations






























Interactive Weather Map
Tropical Storm Tracking
New forecast layout! Learn more

10-Day Weather Forecast

Advertisements
Track Severe Weather on mobile